Airfield :
LOGIN :

Register | Disclaimer

   EN    FR    IT 

 










Legend :    VFR   Marginal VFR   IFR   Intensive IFR   Very Intensive IFR
Visi :
Ceiling :
>= 8 km
>= 3000ft
5 to 8 km
1000 to 3000 ft
1500m to 5 km
500 to 1000 ft
800 to 1500m
200 to 500 ft
< 800m
< 200 ft
Symbols :   Thunderstorms  Fog  Heavy snow  Heavy precipitations  Wind > 20 kt
SIGMETs :     Misc.  Thunderstorms  Icing  Turbulence  Mountain Waves  Volcanic Ashes







- Airport Elevation : 485 ft
- IATA code : QSA


LELL - Sabadell

CURRENT METAR :
  • 191830Z AUTO VRB01KT 9999 NCD 19/11 Q1020

EXPIRED METARs :
  • 191800Z AUTO 12004KT 090V150 9999 NCD 20/12 Q1020
  • 191730Z 12007KT 080V150 9999 FEW045 21/13 Q1019
  • 191700Z 13011KT 9999 FEW045 21/12 Q1019
  • 191630Z 15006KT 9999 FEW045 22/11 Q1019
  • 191600Z 12006KT 060V180 9999 FEW045 23/13 Q1019

TAF TAF LELL
Valid from the 19 at 15:00 until the 20 at 15:00 UTC


191400Z 1915/2015 VRB03KT 9999 SCT020 BKN040 TX22/2012Z TN13/2006Z
TEMPO 1915/1918 13010KT
TEMPO 2000/2015 BKN014
BECMG 2010/2012 14008KT
No reported NOTAMs for that airfield.



MET'MAP, your aeronautical weather chart ! - Copyright ORBIFLY December 2007 - Disclaimer

ORBIFLY MET'MAP TEAM :

Programming & Development : Alexandra Zaïnal
Concept & Development : Baudouin d'Aumeries
Co-Development & Prog : Marc-Olivier Méhu
Technical & hardware support : Manuel Goepfert

Contact : metmap@orbifly.com




SOURCES & CREDITS :

   NOAA